sensor_id;sensor_type;location;lat;lon;timestamp;temperature;humidity
19870;DHT22;10097;50.862;4.696;2022-11-12T00:00:54;6.60;99.90
19870;DHT22;10097;50.862;4.696;2022-11-12T00:03:20;6.70;99.90
19870;DHT22;10097;50.862;4.696;2022-11-12T00:05:46;6.60;99.90
19870;DHT22;10097;50.862;4.696;2022-11-12T00:08:14;6.60;99.90
19870;DHT22;10097;50.862;4.696;2022-11-12T00:10:39;6.60;99.90
19870;DHT22;10097;50.862;4.696;2022-11-12T00:13:05;6.60;99.90
19870;DHT22;10097;50.862;4.696;2022-11-12T00:15:31;6.60;99.90
19870;DHT22;10097;50.862;4.696;2022-11-12T00:17:56;6.60;99.90
19870;DHT22;10097;50.862;4.696;2022-11-12T00:20:22;6.60;99.90
19870;DHT22;10097;50.862;4.696;2022-11-12T00:22:48;6.60;99.90
19870;DHT22;10097;50.862;4.696;2022-11-12T00:25:13;6.50;99.90
19870;DHT22;10097;50.862;4.696;2022-11-12T00:27:39;6.50;99.90
19870;DHT22;10097;50.862;4.696;2022-11-12T00:30:05;6.50;99.90
19870;DHT22;10097;50.862;4.696;2022-11-12T00:32:34;6.50;99.90
19870;DHT22;10097;50.862;4.696;2022-11-12T00:35:01;6.50;99.90
19870;DHT22;10097;50.862;4.696;2022-11-12T00:37:26;6.40;99.90
19870;DHT22;10097;50.862;4.696;2022-11-12T00:39:52;6.40;99.90
19870;DHT22;10097;50.862;4.696;2022-11-12T00:42:17;6.40;99.90
19870;DHT22;10097;50.862;4.696;2022-11-12T00:44:43;6.40;99.90
19870;DHT22;10097;50.862;4.696;2022-11-12T00:47:09;6.40;99.90
19870;DHT22;10097;50.862;4.696;2022-11-12T00:49:34;6.40;99.90
19870;DHT22;10097;50.862;4.696;2022-11-12T00:52:00;6.40;99.90
19870;DHT22;10097;50.862;4.696;2022-11-12T00:54:25;6.40;99.90
19870;DHT22;10097;50.862;4.696;2022-11-12T00:56:51;6.30;99.90
19870;DHT22;10097;50.862;4.696;2022-11-12T00:59:17;6.30;99.90
19870;DHT22;10097;50.862;4.696;2022-11-12T01:01:42;6.30;99.90
19870;DHT22;10097;50.862;4.696;2022-11-12T01:04:08;6.30;99.90
19870;DHT22;10097;50.862;4.696;2022-11-12T01:06:34;6.30;99.90
19870;DHT22;10097;50.862;4.696;2022-11-12T01:08:59;6.30;99.90
19870;DHT22;10097;50.862;4.696;2022-11-12T01:11:27;6.30;99.90
19870;DHT22;10097;50.862;4.696;2022-11-12T01:13:59;6.30;99.90
19870;DHT22;10097;50.862;4.696;2022-11-12T01:16:27;6.30;99.90
19870;DHT22;10097;50.862;4.696;2022-11-12T01:18:55;6.30;99.90
19870;DHT22;10097;50.862;4.696;2022-11-12T01:21:23;6.20;99.90
19870;DHT22;10097;50.862;4.696;2022-11-12T01:23:49;6.20;99.90
19870;DHT22;10097;50.862;4.696;2022-11-12T01:26:16;6.20;99.90
19870;DHT22;10097;50.862;4.696;2022-11-12T01:28:42;6.20;99.90
19870;DHT22;10097;50.862;4.696;2022-11-12T01:31:20;6.20;99.90
19870;DHT22;10097;50.862;4.696;2022-11-12T01:33:49;6.20;99.90
19870;DHT22;10097;50.862;4.696;2022-11-12T01:36:16;6.20;99.90
19870;DHT22;10097;50.862;4.696;2022-11-12T01:38:43;6.20;99.90
19870;DHT22;10097;50.862;4.696;2022-11-12T01:41:12;6.20;99.90
19870;DHT22;10097;50.862;4.696;2022-11-12T01:43:38;6.20;99.90
19870;DHT22;10097;50.862;4.696;2022-11-12T01:46:19;6.20;99.90
19870;DHT22;10097;50.862;4.696;2022-11-12T01:48:58;6.20;99.90
19870;DHT22;10097;50.862;4.696;2022-11-12T01:51:30;6.20;99.90
19870;DHT22;10097;50.862;4.696;2022-11-12T01:53:57;6.20;99.90
19870;DHT22;10097;50.862;4.696;2022-11-12T01:56:26;6.20;99.90
19870;DHT22;10097;50.862;4.696;2022-11-12T01:58:57;6.20;99.90
19870;DHT22;10097;50.862;4.696;2022-11-12T02:01:25;6.20;99.90
19870;DHT22;10097;50.862;4.696;2022-11-12T02:03:50;6.20;99.90
19870;DHT22;10097;50.862;4.696;2022-11-12T02:06:16;6.20;99.90
19870;DHT22;10097;50.862;4.696;2022-11-12T02:08:44;6.20;99.90
19870;DHT22;10097;50.862;4.696;2022-11-12T02:11:18;6.20;99.90
19870;DHT22;10097;50.862;4.696;2022-11-12T02:13:45;6.20;99.90
19870;DHT22;10097;50.862;4.696;2022-11-12T02:16:40;6.20;99.90
19870;DHT22;10097;50.862;4.696;2022-11-12T02:19:10;6.10;99.90
19870;DHT22;10097;50.862;4.696;2022-11-12T02:21:35;6.20;99.90
19870;DHT22;10097;50.862;4.696;2022-11-12T02:24:29;6.10;99.90
19870;DHT22;10097;50.862;4.696;2022-11-12T02:26:53;6.10;99.90
19870;DHT22;10097;50.862;4.696;2022-11-12T02:29:20;6.10;99.90
19870;DHT22;10097;50.862;4.696;2022-11-12T02:31:46;6.10;99.90
19870;DHT22;10097;50.862;4.696;2022-11-12T02:34:11;6.10;99.90
19870;DHT22;10097;50.862;4.696;2022-11-12T02:36:37;6.10;99.90
19870;DHT22;10097;50.862;4.696;2022-11-12T02:39:04;6.10;99.90
19870;DHT22;10097;50.862;4.696;2022-11-12T02:41:29;6.10;99.90
19870;DHT22;10097;50.862;4.696;2022-11-12T02:43:55;6.10;99.90
19870;DHT22;10097;50.862;4.696;2022-11-12T02:46:21;6.10;99.90
19870;DHT22;10097;50.862;4.696;2022-11-12T02:48:47;6.10;99.90
19870;DHT22;10097;50.862;4.696;2022-11-12T02:51:12;6.10;99.90
19870;DHT22;10097;50.862;4.696;2022-11-12T02:53:38;6.00;99.90
19870;DHT22;10097;50.862;4.696;2022-11-12T02:56:04;6.00;99.90
19870;DHT22;10097;50.862;4.696;2022-11-12T02:58:30;6.00;99.90
19870;DHT22;10097;50.862;4.696;2022-11-12T03:00:56;6.00;99.90
19870;DHT22;10097;50.862;4.696;2022-11-12T03:03:22;6.00;99.90
19870;DHT22;10097;50.862;4.696;2022-11-12T03:05:59;6.00;99.90
19870;DHT22;10097;50.862;4.696;2022-11-12T03:08:25;6.00;99.90
19870;DHT22;10097;50.862;4.696;2022-11-12T03:10:51;6.00;99.90
19870;DHT22;10097;50.862;4.696;2022-11-12T03:13:17;6.00;99.90
19870;DHT22;10097;50.862;4.696;2022-11-12T03:15:43;6.00;99.90
19870;DHT22;10097;50.862;4.696;2022-11-12T03:18:09;6.00;99.90
19870;DHT22;10097;50.862;4.696;2022-11-12T03:20:35;6.00;99.90
19870;DHT22;10097;50.862;4.696;2022-11-12T03:23:06;6.10;99.90
19870;DHT22;10097;50.862;4.696;2022-11-12T03:25:32;6.00;99.90
19870;DHT22;10097;50.862;4.696;2022-11-12T03:28:01;6.00;99.90
19870;DHT22;10097;50.862;4.696;2022-11-12T03:30:29;6.00;99.90
19870;DHT22;10097;50.862;4.696;2022-11-12T03:32:55;6.00;99.90
19870;DHT22;10097;50.862;4.696;2022-11-12T03:35:21;6.00;99.90
19870;DHT22;10097;50.862;4.696;2022-11-12T03:37:47;6.00;99.90
19870;DHT22;10097;50.862;4.696;2022-11-12T03:40:12;6.00;99.90
19870;DHT22;10097;50.862;4.696;2022-11-12T03:42:42;6.00;99.90
19870;DHT22;10097;50.862;4.696;2022-11-12T03:45:08;6.00;99.90
19870;DHT22;10097;50.862;4.696;2022-11-12T03:47:34;6.00;99.90
19870;DHT22;10097;50.862;4.696;2022-11-12T03:49:59;6.00;99.90
19870;DHT22;10097;50.862;4.696;2022-11-12T03:52:26;6.00;99.90
19870;DHT22;10097;50.862;4.696;2022-11-12T03:54:51;6.00;99.90
19870;DHT22;10097;50.862;4.696;2022-11-12T03:57:17;6.00;99.90
19870;DHT22;10097;50.862;4.696;2022-11-12T03:59:42;6.00;99.90
19870;DHT22;10097;50.862;4.696;2022-11-12T04:02:08;6.00;99.90
19870;DHT22;10097;50.862;4.696;2022-11-12T04:04:38;6.00;99.90
19870;DHT22;10097;50.862;4.696;2022-11-12T04:07:23;6.00;99.90
19870;DHT22;10097;50.862;4.696;2022-11-12T04:10:07;6.00;99.90
19870;DHT22;10097;50.862;4.696;2022-11-12T04:12:32;6.00;99.90
19870;DHT22;10097;50.862;4.696;2022-11-12T04:15:16;6.00;99.90
19870;DHT22;10097;50.862;4.696;2022-11-12T04:17:42;5.90;99.90
19870;DHT22;10097;50.862;4.696;2022-11-12T04:20:26;6.00;99.90
19870;DHT22;10097;50.862;4.696;2022-11-12T04:23:10;5.90;99.90
19870;DHT22;10097;50.862;4.696;2022-11-12T04:25:36;5.90;99.90
19870;DHT22;10097;50.862;4.696;2022-11-12T04:28:19;5.90;99.90
19870;DHT22;10097;50.862;4.696;2022-11-12T04:30:45;5.90;99.90
19870;DHT22;10097;50.862;4.696;2022-11-12T04:33:11;5.90;99.90
19870;DHT22;10097;50.862;4.696;2022-11-12T04:35:36;5.90;99.90
19870;DHT22;10097;50.862;4.696;2022-11-12T04:38:02;5.90;99.90
19870;DHT22;10097;50.862;4.696;2022-11-12T04:40:27;5.90;99.90
19870;DHT22;10097;50.862;4.696;2022-11-12T04:43:14;5.90;99.90
19870;DHT22;10097;50.862;4.696;2022-11-12T04:46:00;5.90;99.90
19870;DHT22;10097;50.862;4.696;2022-11-12T04:48:26;5.90;99.90
19870;DHT22;10097;50.862;4.696;2022-11-12T04:50:58;5.90;99.90
19870;DHT22;10097;50.862;4.696;2022-11-12T04:53:23;5.80;99.90
19870;DHT22;10097;50.862;4.696;2022-11-12T04:55:53;5.80;99.90
19870;DHT22;10097;50.862;4.696;2022-11-12T04:58:20;5.80;99.90
19870;DHT22;10097;50.862;4.696;2022-11-12T05:00:47;5.80;99.90
19870;DHT22;10097;50.862;4.696;2022-11-12T05:03:13;5.80;99.90
19870;DHT22;10097;50.862;4.696;2022-11-12T05:05:38;5.80;99.90
19870;DHT22;10097;50.862;4.696;2022-11-12T05:08:04;5.80;99.90
19870;DHT22;10097;50.862;4.696;2022-11-12T05:10:30;5.80;99.90
19870;DHT22;10097;50.862;4.696;2022-11-12T05:12:56;5.80;99.90
19870;DHT22;10097;50.862;4.696;2022-11-12T05:15:22;5.70;99.90
19870;DHT22;10097;50.862;4.696;2022-11-12T05:17:47;5.80;99.90
19870;DHT22;10097;50.862;4.696;2022-11-12T05:20:14;5.80;99.90
19870;DHT22;10097;50.862;4.696;2022-11-12T05:22:40;5.80;99.90
19870;DHT22;10097;50.862;4.696;2022-11-12T05:25:06;5.70;99.90
19870;DHT22;10097;50.862;4.696;2022-11-12T05:27:32;5.70;99.90
19870;DHT22;10097;50.862;4.696;2022-11-12T05:29:58;5.70;99.90
19870;DHT22;10097;50.862;4.696;2022-11-12T05:32:24;5.70;99.90
19870;DHT22;10097;50.862;4.696;2022-11-12T05:34:51;5.70;99.90
19870;DHT22;10097;50.862;4.696;2022-11-12T05:37:16;5.70;99.90
19870;DHT22;10097;50.862;4.696;2022-11-12T05:39:42;5.70;99.90
19870;DHT22;10097;50.862;4.696;2022-11-12T05:42:08;5.70;99.90
19870;DHT22;10097;50.862;4.696;2022-11-12T05:44:33;5.70;99.90
19870;DHT22;10097;50.862;4.696;2022-11-12T05:46:59;5.60;99.90
19870;DHT22;10097;50.862;4.696;2022-11-12T05:49:25;5.60;99.90
19870;DHT22;10097;50.862;4.696;2022-11-12T05:51:51;5.60;99.90
19870;DHT22;10097;50.862;4.696;2022-11-12T05:54:17;5.70;99.90
19870;DHT22;10097;50.862;4.696;2022-11-12T05:56:43;5.60;99.90
19870;DHT22;10097;50.862;4.696;2022-11-12T05:59:12;5.60;99.90
19870;DHT22;10097;50.862;4.696;2022-11-12T06:01:38;5.60;99.90
19870;DHT22;10097;50.862;4.696;2022-11-12T06:04:12;5.60;99.90
19870;DHT22;10097;50.862;4.696;2022-11-12T06:06:39;5.60;99.90
19870;DHT22;10097;50.862;4.696;2022-11-12T06:09:06;5.60;99.90
19870;DHT22;10097;50.862;4.696;2022-11-12T06:11:32;5.60;99.90
19870;DHT22;10097;50.862;4.696;2022-11-12T06:13:57;5.60;99.90
19870;DHT22;10097;50.862;4.696;2022-11-12T06:16:23;5.60;99.90
19870;DHT22;10097;50.862;4.696;2022-11-12T06:18:49;5.60;99.90
19870;DHT22;10097;50.862;4.696;2022-11-12T06:21:14;5.60;99.90
19870;DHT22;10097;50.862;4.696;2022-11-12T06:23:54;5.60;99.90
19870;DHT22;10097;50.862;4.696;2022-11-12T06:26:21;5.60;99.90
19870;DHT22;10097;50.862;4.696;2022-11-12T06:28:47;5.60;99.90
19870;DHT22;10097;50.862;4.696;2022-11-12T06:31:14;5.60;99.90
19870;DHT22;10097;50.862;4.696;2022-11-12T06:33:40;5.60;99.90
19870;DHT22;10097;50.862;4.696;2022-11-12T06:36:06;5.60;99.90
19870;DHT22;10097;50.862;4.696;2022-11-12T06:38:37;5.60;99.90
19870;DHT22;10097;50.862;4.696;2022-11-12T06:41:03;5.60;99.90
19870;DHT22;10097;50.862;4.696;2022-11-12T06:43:31;5.60;99.90
19870;DHT22;10097;50.862;4.696;2022-11-12T06:46:06;5.60;99.90
19870;DHT22;10097;50.862;4.696;2022-11-12T06:48:31;5.60;99.90
19870;DHT22;10097;50.862;4.696;2022-11-12T06:50:57;5.60;99.90
19870;DHT22;10097;50.862;4.696;2022-11-12T06:53:29;5.60;99.90
19870;DHT22;10097;50.862;4.696;2022-11-12T06:56:00;5.60;99.90
19870;DHT22;10097;50.862;4.696;2022-11-12T06:58:26;5.60;99.90
19870;DHT22;10097;50.862;4.696;2022-11-12T07:00:51;5.60;99.90
19870;DHT22;10097;50.862;4.696;2022-11-12T07:03:17;5.70;99.90
19870;DHT22;10097;50.862;4.696;2022-11-12T07:05:43;5.60;99.90
19870;DHT22;10097;50.862;4.696;2022-11-12T07:08:08;5.70;99.90
19870;DHT22;10097;50.862;4.696;2022-11-12T07:10:34;5.70;99.90
19870;DHT22;10097;50.862;4.696;2022-11-12T07:12:59;5.70;99.90
19870;DHT22;10097;50.862;4.696;2022-11-12T07:15:25;5.70;99.90
19870;DHT22;10097;50.862;4.696;2022-11-12T07:17:51;5.80;99.90
19870;DHT22;10097;50.862;4.696;2022-11-12T07:20:16;5.70;99.90
19870;DHT22;10097;50.862;4.696;2022-11-12T07:22:42;5.80;99.90
19870;DHT22;10097;50.862;4.696;2022-11-12T07:25:08;5.80;99.90
19870;DHT22;10097;50.862;4.696;2022-11-12T07:27:33;5.80;99.90
19870;DHT22;10097;50.862;4.696;2022-11-12T07:29:59;5.90;99.90
19870;DHT22;10097;50.862;4.696;2022-11-12T07:32:25;5.90;99.90
19870;DHT22;10097;50.862;4.696;2022-11-12T07:34:50;6.00;99.90
19870;DHT22;10097;50.862;4.696;2022-11-12T07:37:16;6.00;99.90
19870;DHT22;10097;50.862;4.696;2022-11-12T07:39:42;6.10;99.90
19870;DHT22;10097;50.862;4.696;2022-11-12T07:42:07;6.10;99.90
19870;DHT22;10097;50.862;4.696;2022-11-12T07:44:33;6.10;99.90
19870;DHT22;10097;50.862;4.696;2022-11-12T07:46:58;6.10;99.90
19870;DHT22;10097;50.862;4.696;2022-11-12T07:49:24;6.00;99.90
19870;DHT22;10097;50.862;4.696;2022-11-12T07:51:50;6.10;99.90
19870;DHT22;10097;50.862;4.696;2022-11-12T07:54:15;6.10;99.90
19870;DHT22;10097;50.862;4.696;2022-11-12T07:56:41;6.20;99.90
19870;DHT22;10097;50.862;4.696;2022-11-12T07:59:06;6.20;99.90
19870;DHT22;10097;50.862;4.696;2022-11-12T08:01:37;6.30;99.90
19870;DHT22;10097;50.862;4.696;2022-11-12T08:04:08;6.40;99.90
19870;DHT22;10097;50.862;4.696;2022-11-12T08:06:35;6.50;99.90
19870;DHT22;10097;50.862;4.696;2022-11-12T08:09:04;6.60;99.90
19870;DHT22;10097;50.862;4.696;2022-11-12T08:11:30;6.60;99.90
19870;DHT22;10097;50.862;4.696;2022-11-12T08:13:56;6.70;99.90
19870;DHT22;10097;50.862;4.696;2022-11-12T08:16:22;6.70;99.90
19870;DHT22;10097;50.862;4.696;2022-11-12T08:18:47;6.80;99.90
19870;DHT22;10097;50.862;4.696;2022-11-12T08:21:15;7.00;99.90
19870;DHT22;10097;50.862;4.696;2022-11-12T08:23:42;7.10;99.90
19870;DHT22;10097;50.862;4.696;2022-11-12T08:26:09;7.20;99.90
19870;DHT22;10097;50.862;4.696;2022-11-12T08:28:36;7.30;99.90
19870;DHT22;10097;50.862;4.696;2022-11-12T08:31:04;7.40;99.90
19870;DHT22;10097;50.862;4.696;2022-11-12T08:33:31;7.40;99.90
19870;DHT22;10097;50.862;4.696;2022-11-12T08:35:57;7.30;99.90
19870;DHT22;10097;50.862;4.696;2022-11-12T08:38:23;7.40;99.90
19870;DHT22;10097;50.862;4.696;2022-11-12T08:40:49;7.50;99.90
19870;DHT22;10097;50.862;4.696;2022-11-12T08:43:14;7.50;99.90
19870;DHT22;10097;50.862;4.696;2022-11-12T08:45:40;7.50;99.90
19870;DHT22;10097;50.862;4.696;2022-11-12T08:48:08;7.60;99.90
19870;DHT22;10097;50.862;4.696;2022-11-12T08:50:34;7.70;99.90
19870;DHT22;10097;50.862;4.696;2022-11-12T08:53:11;7.80;99.90
19870;DHT22;10097;50.862;4.696;2022-11-12T08:55:37;8.00;99.90
19870;DHT22;10097;50.862;4.696;2022-11-12T08:58:03;8.00;99.90
19870;DHT22;10097;50.862;4.696;2022-11-12T09:00:36;8.10;99.90
19870;DHT22;10097;50.862;4.696;2022-11-12T09:03:03;8.20;99.90
19870;DHT22;10097;50.862;4.696;2022-11-12T09:05:29;8.30;99.90
19870;DHT22;10097;50.862;4.696;2022-11-12T09:08:06;8.30;99.90
19870;DHT22;10097;50.862;4.696;2022-11-12T09:10:33;8.40;99.90
19870;DHT22;10097;50.862;4.696;2022-11-12T09:12:59;8.40;99.90
19870;DHT22;10097;50.862;4.696;2022-11-12T09:15:25;8.40;99.90
19870;DHT22;10097;50.862;4.696;2022-11-12T09:17:56;8.60;99.90
19870;DHT22;10097;50.862;4.696;2022-11-12T09:20:22;8.70;99.90
19870;DHT22;10097;50.862;4.696;2022-11-12T09:22:48;8.80;99.90
19870;DHT22;10097;50.862;4.696;2022-11-12T09:25:14;9.00;99.90
19870;DHT22;10097;50.862;4.696;2022-11-12T09:27:39;9.20;99.90
19870;DHT22;10097;50.862;4.696;2022-11-12T09:30:05;9.20;99.90
19870;DHT22;10097;50.862;4.696;2022-11-12T09:32:32;9.30;99.90
19870;DHT22;10097;50.862;4.696;2022-11-12T09:34:57;9.40;99.90
19870;DHT22;10097;50.862;4.696;2022-11-12T09:37:23;9.50;99.90
19870;DHT22;10097;50.862;4.696;2022-11-12T09:39:48;9.50;99.90
19870;DHT22;10097;50.862;4.696;2022-11-12T09:42:17;9.60;99.90
19870;DHT22;10097;50.862;4.696;2022-11-12T09:44:50;9.70;99.90
19870;DHT22;10097;50.862;4.696;2022-11-12T09:47:26;9.80;99.90
19870;DHT22;10097;50.862;4.696;2022-11-12T09:52:42;10.10;99.90
19870;DHT22;10097;50.862;4.696;2022-11-12T09:55:18;10.30;99.90
19870;DHT22;10097;50.862;4.696;2022-11-12T09:57:45;10.40;99.90
19870;DHT22;10097;50.862;4.696;2022-11-12T10:00:18;10.50;99.90
19870;DHT22;10097;50.862;4.696;2022-11-12T10:03:07;10.70;99.90
19870;DHT22;10097;50.862;4.696;2022-11-12T10:06:15;10.80;99.90
19870;DHT22;10097;50.862;4.696;2022-11-12T10:09:00;10.80;99.90
19870;DHT22;10097;50.862;4.696;2022-11-12T10:18:03;11.10;99.90
19870;DHT22;10097;50.862;4.696;2022-11-12T10:23:23;11.30;99.90
19870;DHT22;10097;50.862;4.696;2022-11-12T10:25:54;11.50;99.90
19870;DHT22;10097;50.862;4.696;2022-11-12T10:28:36;11.70;99.90
19870;DHT22;10097;50.862;4.696;2022-11-12T10:31:12;11.80;99.90
19870;DHT22;10097;50.862;4.696;2022-11-12T10:33:38;11.90;99.90
19870;DHT22;10097;50.862;4.696;2022-11-12T10:39:40;12.20;99.90
19870;DHT22;10097;50.862;4.696;2022-11-12T10:42:11;12.40;99.90
19870;DHT22;10097;50.862;4.696;2022-11-12T10:44:38;12.50;99.90
19870;DHT22;10097;50.862;4.696;2022-11-12T10:47:27;12.60;99.90
19870;DHT22;10097;50.862;4.696;2022-11-12T10:52:29;13.00;99.90
19870;DHT22;10097;50.862;4.696;2022-11-12T10:55:21;13.20;99.90
19870;DHT22;10097;50.862;4.696;2022-11-12T10:58:05;13.40;99.90
19870;DHT22;10097;50.862;4.696;2022-11-12T11:00:32;13.60;99.90
19870;DHT22;10097;50.862;4.696;2022-11-12T11:03:00;13.80;99.90
19870;DHT22;10097;50.862;4.696;2022-11-12T11:05:31;13.90;99.90
19870;DHT22;10097;50.862;4.696;2022-11-12T11:07:57;13.90;99.90
19870;DHT22;10097;50.862;4.696;2022-11-12T11:13:24;14.20;99.90
19870;DHT22;10097;50.862;4.696;2022-11-12T11:18:30;14.50;99.90
19870;DHT22;10097;50.862;4.696;2022-11-12T11:34:37;15.50;99.90
19870;DHT22;10097;50.862;4.696;2022-11-12T11:40:08;15.90;99.90
19870;DHT22;10097;50.862;4.696;2022-11-12T11:45:58;16.30;99.90
19870;DHT22;10097;50.862;4.696;2022-11-12T11:57:11;17.30;99.90
19870;DHT22;10097;50.862;4.696;2022-11-12T12:00:30;17.50;99.90
19870;DHT22;10097;50.862;4.696;2022-11-12T12:02:52;17.80;99.90
19870;DHT22;10097;50.862;4.696;2022-11-12T12:05:38;18.00;99.90
19870;DHT22;10097;50.862;4.696;2022-11-12T12:08:11;18.10;99.90
19870;DHT22;10097;50.862;4.696;2022-11-12T12:21:16;19.00;99.90
19870;DHT22;10097;50.862;4.696;2022-11-12T12:23:54;19.10;99.90
19870;DHT22;10097;50.862;4.696;2022-11-12T12:26:24;19.20;99.90
19870;DHT22;10097;50.862;4.696;2022-11-12T12:31:35;19.50;99.90
19870;DHT22;10097;50.862;4.696;2022-11-12T12:34:04;19.60;99.90
19870;DHT22;10097;50.862;4.696;2022-11-12T12:36:37;19.80;99.90
19870;DHT22;10097;50.862;4.696;2022-11-12T12:39:25;19.90;99.90
19870;DHT22;10097;50.862;4.696;2022-11-12T12:44:20;20.30;99.90
19870;DHT22;10097;50.862;4.696;2022-11-12T12:46:56;20.50;99.90
19870;DHT22;10097;50.862;4.696;2022-11-12T12:49:30;20.60;99.90
19870;DHT22;10097;50.862;4.696;2022-11-12T12:51:58;20.80;99.90
19870;DHT22;10097;50.862;4.696;2022-11-12T12:57:31;21.10;99.90
19870;DHT22;10097;50.862;4.696;2022-11-12T13:02:54;21.20;99.90
19870;DHT22;10097;50.862;4.696;2022-11-12T13:05:29;21.20;99.90
19870;DHT22;10097;50.862;4.696;2022-11-12T13:07:59;21.40;99.90
19870;DHT22;10097;50.862;4.696;2022-11-12T13:13:27;21.50;99.90
19870;DHT22;10097;50.862;4.696;2022-11-12T13:15:55;21.50;99.90
19870;DHT22;10097;50.862;4.696;2022-11-12T13:21:17;21.70;99.90
19870;DHT22;10097;50.862;4.696;2022-11-12T13:23:52;21.80;99.90
19870;DHT22;10097;50.862;4.696;2022-11-12T13:26:46;21.90;99.90
19870;DHT22;10097;50.862;4.696;2022-11-12T13:32:27;22.10;99.90
19870;DHT22;10097;50.862;4.696;2022-11-12T13:40:20;22.20;99.90
19870;DHT22;10097;50.862;4.696;2022-11-12T13:42:49;22.20;99.90
19870;DHT22;10097;50.862;4.696;2022-11-12T13:45:16;21.90;99.90
19870;DHT22;10097;50.862;4.696;2022-11-12T13:47:42;21.90;99.90
19870;DHT22;10097;50.862;4.696;2022-11-12T13:50:14;22.00;99.90
19870;DHT22;10097;50.862;4.696;2022-11-12T13:52:41;22.10;99.90
19870;DHT22;10097;50.862;4.696;2022-11-12T13:55:21;22.20;99.90
19870;DHT22;10097;50.862;4.696;2022-11-12T13:57:53;22.20;99.90
19870;DHT22;10097;50.862;4.696;2022-11-12T14:00:27;22.30;99.90
19870;DHT22;10097;50.862;4.696;2022-11-12T14:02:56;22.40;99.90
19870;DHT22;10097;50.862;4.696;2022-11-12T14:05:31;22.50;99.90
19870;DHT22;10097;50.862;4.696;2022-11-12T14:11:18;22.60;99.90
19870;DHT22;10097;50.862;4.696;2022-11-12T14:16:56;22.50;99.90
19870;DHT22;10097;50.862;4.696;2022-11-12T14:24:33;22.40;99.90
19870;DHT22;10097;50.862;4.696;2022-11-12T14:26:59;22.30;99.90
19870;DHT22;10097;50.862;4.696;2022-11-12T14:29:25;22.30;99.90
19870;DHT22;10097;50.862;4.696;2022-11-12T14:32:01;22.20;99.90
19870;DHT22;10097;50.862;4.696;2022-11-12T14:34:31;21.90;99.90
19870;DHT22;10097;50.862;4.696;2022-11-12T14:36:58;21.70;99.90
19870;DHT22;10097;50.862;4.696;2022-11-12T14:39:25;21.40;99.90
19870;DHT22;10097;50.862;4.696;2022-11-12T14:41:52;21.20;99.90
19870;DHT22;10097;50.862;4.696;2022-11-12T14:44:26;21.00;99.90
19870;DHT22;10097;50.862;4.696;2022-11-12T14:46:54;20.70;99.90
19870;DHT22;10097;50.862;4.696;2022-11-12T14:49:42;20.60;99.90
19870;DHT22;10097;50.862;4.696;2022-11-12T14:52:23;20.30;99.90
19870;DHT22;10097;50.862;4.696;2022-11-12T14:54:54;20.10;99.90
19870;DHT22;10097;50.862;4.696;2022-11-12T14:57:27;20.00;99.90
19870;DHT22;10097;50.862;4.696;2022-11-12T14:59:53;19.80;99.90
19870;DHT22;10097;50.862;4.696;2022-11-12T15:02:27;19.60;99.90
19870;DHT22;10097;50.862;4.696;2022-11-12T15:05:16;19.50;99.90
19870;DHT22;10097;50.862;4.696;2022-11-12T15:10:39;19.40;99.90
19870;DHT22;10097;50.862;4.696;2022-11-12T15:13:23;19.30;99.90
19870;DHT22;10097;50.862;4.696;2022-11-12T15:15:55;19.20;99.90
19870;DHT22;10097;50.862;4.696;2022-11-12T15:18:26;19.20;99.90
19870;DHT22;10097;50.862;4.696;2022-11-12T15:23:51;18.90;99.90
19870;DHT22;10097;50.862;4.696;2022-11-12T15:26:44;18.70;99.90
19870;DHT22;10097;50.862;4.696;2022-11-12T15:31:47;18.30;99.90
19870;DHT22;10097;50.862;4.696;2022-11-12T15:37:10;18.00;99.90
19870;DHT22;10097;50.862;4.696;2022-11-12T15:39:41;17.90;99.90
19870;DHT22;10097;50.862;4.696;2022-11-12T15:42:26;17.80;99.90
19870;DHT22;10097;50.862;4.696;2022-11-12T15:45:01;17.60;99.90
19870;DHT22;10097;50.862;4.696;2022-11-12T15:47:28;17.50;99.90
19870;DHT22;10097;50.862;4.696;2022-11-12T15:49:55;17.40;99.90
19870;DHT22;10097;50.862;4.696;2022-11-12T15:52:21;17.30;99.90
19870;DHT22;10097;50.862;4.696;2022-11-12T15:54:48;17.10;99.90
19870;DHT22;10097;50.862;4.696;2022-11-12T15:57:20;17.00;99.90
19870;DHT22;10097;50.862;4.696;2022-11-12T16:00:00;16.80;99.90
19870;DHT22;10097;50.862;4.696;2022-11-12T16:02:25;16.60;99.90
19870;DHT22;10097;50.862;4.696;2022-11-12T16:04:51;16.50;99.90
19870;DHT22;10097;50.862;4.696;2022-11-12T16:07:17;16.30;99.90
19870;DHT22;10097;50.862;4.696;2022-11-12T16:09:43;16.20;99.90
19870;DHT22;10097;50.862;4.696;2022-11-12T16:12:10;16.00;99.90
19870;DHT22;10097;50.862;4.696;2022-11-12T16:14:37;15.90;99.90
19870;DHT22;10097;50.862;4.696;2022-11-12T16:17:05;15.80;99.90
19870;DHT22;10097;50.862;4.696;2022-11-12T16:19:30;15.60;99.90
19870;DHT22;10097;50.862;4.696;2022-11-12T16:22:01;15.50;99.90
19870;DHT22;10097;50.862;4.696;2022-11-12T16:24:28;15.40;99.90
19870;DHT22;10097;50.862;4.696;2022-11-12T16:26:54;15.30;99.90
19870;DHT22;10097;50.862;4.696;2022-11-12T16:29:20;15.20;99.90
19870;DHT22;10097;50.862;4.696;2022-11-12T16:31:45;15.00;99.90
19870;DHT22;10097;50.862;4.696;2022-11-12T16:34:11;14.90;99.90
19870;DHT22;10097;50.862;4.696;2022-11-12T16:36:38;14.90;99.90
19870;DHT22;10097;50.862;4.696;2022-11-12T16:39:04;14.80;99.90
19870;DHT22;10097;50.862;4.696;2022-11-12T16:41:30;14.70;99.90
19870;DHT22;10097;50.862;4.696;2022-11-12T16:43:56;14.50;99.90
19870;DHT22;10097;50.862;4.696;2022-11-12T16:46:34;14.50;99.90
19870;DHT22;10097;50.862;4.696;2022-11-12T16:49:03;14.40;99.90
19870;DHT22;10097;50.862;4.696;2022-11-12T16:51:29;14.30;99.90
19870;DHT22;10097;50.862;4.696;2022-11-12T16:53:55;14.10;99.90
19870;DHT22;10097;50.862;4.696;2022-11-12T16:56:22;14.00;99.90
19870;DHT22;10097;50.862;4.696;2022-11-12T16:58:48;14.00;99.90
19870;DHT22;10097;50.862;4.696;2022-11-12T17:01:26;13.90;99.90
19870;DHT22;10097;50.862;4.696;2022-11-12T17:03:53;13.80;99.90
19870;DHT22;10097;50.862;4.696;2022-11-12T17:06:31;13.80;99.90
19870;DHT22;10097;50.862;4.696;2022-11-12T17:08:57;13.70;99.90
19870;DHT22;10097;50.862;4.696;2022-11-12T17:11:22;13.60;99.90
19870;DHT22;10097;50.862;4.696;2022-11-12T17:13:48;13.60;99.90
19870;DHT22;10097;50.862;4.696;2022-11-12T17:16:14;13.50;99.90
19870;DHT22;10097;50.862;4.696;2022-11-12T17:18:39;13.40;99.90
19870;DHT22;10097;50.862;4.696;2022-11-12T17:21:16;13.40;99.90
19870;DHT22;10097;50.862;4.696;2022-11-12T17:23:42;13.30;99.90
19870;DHT22;10097;50.862;4.696;2022-11-12T17:26:13;13.20;99.90
19870;DHT22;10097;50.862;4.696;2022-11-12T17:28:38;13.20;99.90
19870;DHT22;10097;50.862;4.696;2022-11-12T17:31:16;13.20;99.90
19870;DHT22;10097;50.862;4.696;2022-11-12T17:33:47;13.10;99.90
19870;DHT22;10097;50.862;4.696;2022-11-12T17:36:18;13.00;99.90
19870;DHT22;10097;50.862;4.696;2022-11-12T17:38:44;12.90;99.90
19870;DHT22;10097;50.862;4.696;2022-11-12T17:41:10;12.90;99.90
19870;DHT22;10097;50.862;4.696;2022-11-12T17:43:36;12.80;99.90